sensor_id;sensor_type;location;lat;lon;timestamp;P1;durP1;ratioP1;P2;durP2;ratioP2
67051;SDS011;53957;47.222;18.670;2022-11-03T00:01:00;9.40;;;7.82;;
67051;SDS011;53957;47.222;18.670;2022-11-03T00:04:04;10.75;;;7.82;;
67051;SDS011;53957;47.222;18.670;2022-11-03T00:07:07;12.20;;;7.40;;
67051;SDS011;53957;47.222;18.670;2022-11-03T00:10:10;10.20;;;7.70;;
67051;SDS011;53957;47.222;18.670;2022-11-03T00:13:12;13.88;;;8.23;;
67051;SDS011;53957;47.222;18.670;2022-11-03T00:16:15;12.32;;;7.50;;
67051;SDS011;53957;47.222;18.670;2022-11-03T00:19:18;9.75;;;7.53;;
67051;SDS011;53957;47.222;18.670;2022-11-03T00:22:21;10.30;;;7.30;;
67051;SDS011;53957;47.222;18.670;2022-11-03T00:25:24;17.80;;;8.00;;
67051;SDS011;53957;47.222;18.670;2022-11-03T00:28:29;13.50;;;7.82;;
67051;SDS011;53957;47.222;18.670;2022-11-03T00:31:33;12.45;;;7.50;;
67051;SDS011;53957;47.222;18.670;2022-11-03T00:34:37;11.93;;;8.63;;
67051;SDS011;53957;47.222;18.670;2022-11-03T00:37:39;11.73;;;7.80;;
67051;SDS011;53957;47.222;18.670;2022-11-03T00:40:42;12.55;;;7.50;;
67051;SDS011;53957;47.222;18.670;2022-11-03T00:43:45;11.73;;;7.55;;
67051;SDS011;53957;47.222;18.670;2022-11-03T00:46:48;9.75;;;7.28;;
67051;SDS011;53957;47.222;18.670;2022-11-03T00:49:51;11.18;;;7.68;;
67051;SDS011;53957;47.222;18.670;2022-11-03T00:52:54;12.30;;;7.68;;
67051;SDS011;53957;47.222;18.670;2022-11-03T00:55:56;14.68;;;7.50;;
67051;SDS011;53957;47.222;18.670;2022-11-03T00:59:00;10.10;;;7.50;;
67051;SDS011;53957;47.222;18.670;2022-11-03T01:02:04;11.02;;;7.43;;
67051;SDS011;53957;47.222;18.670;2022-11-03T01:05:07;16.17;;;7.60;;
67051;SDS011;53957;47.222;18.670;2022-11-03T01:08:31;9.95;;;7.60;;
67051;SDS011;53957;47.222;18.670;2022-11-03T01:11:35;11.38;;;7.53;;
67051;SDS011;53957;47.222;18.670;2022-11-03T01:14:48;10.40;;;7.20;;
67051;SDS011;53957;47.222;18.670;2022-11-03T01:17:54;10.25;;;7.20;;
67051;SDS011;53957;47.222;18.670;2022-11-03T01:20:57;12.55;;;7.47;;
67051;SDS011;53957;47.222;18.670;2022-11-03T01:24:00;11.15;;;7.62;;
67051;SDS011;53957;47.222;18.670;2022-11-03T01:27:04;14.02;;;8.10;;
67051;SDS011;53957;47.222;18.670;2022-11-03T01:30:07;12.60;;;7.57;;
67051;SDS011;53957;47.222;18.670;2022-11-03T01:33:10;9.18;;;7.55;;
67051;SDS011;53957;47.222;18.670;2022-11-03T01:36:13;13.27;;;8.30;;
67051;SDS011;53957;47.222;18.670;2022-11-03T01:39:19;12.48;;;8.38;;
67051;SDS011;53957;47.222;18.670;2022-11-03T01:42:22;11.12;;;8.55;;
67051;SDS011;53957;47.222;18.670;2022-11-03T01:45:24;14.15;;;8.18;;
67051;SDS011;53957;47.222;18.670;2022-11-03T01:48:27;15.77;;;9.10;;
67051;SDS011;53957;47.222;18.670;2022-11-03T01:51:31;10.73;;;7.80;;
67051;SDS011;53957;47.222;18.670;2022-11-03T01:54:37;12.35;;;8.23;;
67051;SDS011;53957;47.222;18.670;2022-11-03T01:57:54;10.75;;;7.93;;
67051;SDS011;53957;47.222;18.670;2022-11-03T02:01:02;14.63;;;7.93;;
67051;SDS011;53957;47.222;18.670;2022-11-03T02:04:11;13.45;;;8.48;;
67051;SDS011;53957;47.222;18.670;2022-11-03T02:07:36;11.68;;;8.43;;
67051;SDS011;53957;47.222;18.670;2022-11-03T02:10:47;10.55;;;7.50;;
67051;SDS011;53957;47.222;18.670;2022-11-03T02:13:52;17.23;;;8.20;;
67051;SDS011;53957;47.222;18.670;2022-11-03T02:16:56;10.77;;;8.40;;
67051;SDS011;53957;47.222;18.670;2022-11-03T02:20:04;14.20;;;8.15;;
67051;SDS011;53957;47.222;18.670;2022-11-03T02:26:33;11.18;;;8.45;;
67051;SDS011;53957;47.222;18.670;2022-11-03T02:29:37;14.30;;;9.50;;
67051;SDS011;53957;47.222;18.670;2022-11-03T02:39:33;14.63;;;8.05;;
67051;SDS011;53957;47.222;18.670;2022-11-03T02:42:42;11.68;;;8.38;;
67051;SDS011;53957;47.222;18.670;2022-11-03T02:45:49;14.68;;;8.65;;
67051;SDS011;53957;47.222;18.670;2022-11-03T02:48:54;12.93;;;8.63;;
67051;SDS011;53957;47.222;18.670;2022-11-03T02:52:02;10.98;;;8.40;;
67051;SDS011;53957;47.222;18.670;2022-11-03T02:55:09;11.32;;;8.30;;
67051;SDS011;53957;47.222;18.670;2022-11-03T02:59:19;16.20;;;9.07;;
67051;SDS011;53957;47.222;18.670;2022-11-03T03:02:08;11.75;;;7.95;;
67051;SDS011;53957;47.222;18.670;2022-11-03T03:05:14;11.90;;;7.53;;
67051;SDS011;53957;47.222;18.670;2022-11-03T03:08:20;11.32;;;8.50;;
67051;SDS011;53957;47.222;18.670;2022-11-03T03:11:26;11.32;;;7.85;;
67051;SDS011;53957;47.222;18.670;2022-11-03T03:14:40;12.93;;;8.35;;
67051;SDS011;53957;47.222;18.670;2022-11-03T03:17:58;10.63;;;8.27;;
67051;SDS011;53957;47.222;18.670;2022-11-03T03:21:14;11.70;;;7.93;;
67051;SDS011;53957;47.222;18.670;2022-11-03T03:27:34;12.02;;;8.77;;
67051;SDS011;53957;47.222;18.670;2022-11-03T03:30:41;14.00;;;8.68;;
67051;SDS011;53957;47.222;18.670;2022-11-03T03:33:46;15.65;;;8.73;;
67051;SDS011;53957;47.222;18.670;2022-11-03T03:36:57;12.73;;;9.00;;
67051;SDS011;53957;47.222;18.670;2022-11-03T03:40:02;11.57;;;8.40;;
67051;SDS011;53957;47.222;18.670;2022-11-03T03:43:09;12.13;;;8.15;;
67051;SDS011;53957;47.222;18.670;2022-11-03T03:46:14;12.20;;;8.50;;
67051;SDS011;53957;47.222;18.670;2022-11-03T03:49:20;11.35;;;8.27;;
67051;SDS011;53957;47.222;18.670;2022-11-03T03:52:23;12.00;;;8.10;;
67051;SDS011;53957;47.222;18.670;2022-11-03T03:55:33;13.35;;;7.93;;
67051;SDS011;53957;47.222;18.670;2022-11-03T03:58:39;10.32;;;7.82;;
67051;SDS011;53957;47.222;18.670;2022-11-03T04:01:42;8.77;;;7.37;;
67051;SDS011;53957;47.222;18.670;2022-11-03T04:04:45;10.75;;;8.18;;
67051;SDS011;53957;47.222;18.670;2022-11-03T04:07:47;12.45;;;8.35;;
67051;SDS011;53957;47.222;18.670;2022-11-03T04:10:50;12.77;;;8.18;;
67051;SDS011;53957;47.222;18.670;2022-11-03T04:14:11;13.35;;;7.90;;
67051;SDS011;53957;47.222;18.670;2022-11-03T04:17:32;13.00;;;7.37;;
67051;SDS011;53957;47.222;18.670;2022-11-03T04:20:54;13.02;;;7.43;;
67051;SDS011;53957;47.222;18.670;2022-11-03T04:24:15;13.15;;;8.68;;
67051;SDS011;53957;47.222;18.670;2022-11-03T04:30:36;11.75;;;7.93;;
67051;SDS011;53957;47.222;18.670;2022-11-03T04:33:38;8.77;;;7.05;;
67051;SDS011;53957;47.222;18.670;2022-11-03T04:36:43;12.37;;;7.78;;
67051;SDS011;53957;47.222;18.670;2022-11-03T04:39:46;10.02;;;8.07;;
67051;SDS011;53957;47.222;18.670;2022-11-03T04:42:49;9.80;;;7.80;;
67051;SDS011;53957;47.222;18.670;2022-11-03T04:45:52;9.98;;;7.50;;
67051;SDS011;53957;47.222;18.670;2022-11-03T04:48:58;13.07;;;8.55;;
67051;SDS011;53957;47.222;18.670;2022-11-03T04:52:05;11.43;;;8.25;;
67051;SDS011;53957;47.222;18.670;2022-11-03T04:55:23;10.35;;;7.95;;
67051;SDS011;53957;47.222;18.670;2022-11-03T04:58:31;11.20;;;8.35;;
67051;SDS011;53957;47.222;18.670;2022-11-03T05:01:36;15.77;;;7.80;;
67051;SDS011;53957;47.222;18.670;2022-11-03T05:04:39;12.50;;;8.65;;
67051;SDS011;53957;47.222;18.670;2022-11-03T05:07:43;13.07;;;8.43;;
67051;SDS011;53957;47.222;18.670;2022-11-03T05:10:52;10.63;;;7.97;;
67051;SDS011;53957;47.222;18.670;2022-11-03T05:13:57;13.10;;;8.23;;
67051;SDS011;53957;47.222;18.670;2022-11-03T05:17:04;10.80;;;8.15;;
67051;SDS011;53957;47.222;18.670;2022-11-03T05:20:25;10.00;;;7.93;;
67051;SDS011;53957;47.222;18.670;2022-11-03T05:23:38;11.40;;;7.80;;
67051;SDS011;53957;47.222;18.670;2022-11-03T05:26:42;13.50;;;8.02;;
67051;SDS011;53957;47.222;18.670;2022-11-03T05:29:45;16.70;;;8.90;;
67051;SDS011;53957;47.222;18.670;2022-11-03T05:32:49;12.70;;;8.05;;
67051;SDS011;53957;47.222;18.670;2022-11-03T05:35:52;26.23;;;9.20;;
67051;SDS011;53957;47.222;18.670;2022-11-03T05:38:58;17.70;;;9.07;;
67051;SDS011;53957;47.222;18.670;2022-11-03T05:45:33;10.73;;;9.13;;
67051;SDS011;53957;47.222;18.670;2022-11-03T05:48:39;12.77;;;8.82;;
67051;SDS011;53957;47.222;18.670;2022-11-03T05:51:45;13.73;;;10.02;;
67051;SDS011;53957;47.222;18.670;2022-11-03T05:54:48;16.40;;;9.30;;
67051;SDS011;53957;47.222;18.670;2022-11-03T05:57:55;12.23;;;8.63;;
67051;SDS011;53957;47.222;18.670;2022-11-03T06:01:00;12.82;;;9.45;;
67051;SDS011;53957;47.222;18.670;2022-11-03T06:07:28;13.95;;;9.27;;
67051;SDS011;53957;47.222;18.670;2022-11-03T06:10:34;13.77;;;9.13;;
67051;SDS011;53957;47.222;18.670;2022-11-03T06:13:40;14.65;;;9.40;;
67051;SDS011;53957;47.222;18.670;2022-11-03T06:16:46;14.32;;;9.30;;
67051;SDS011;53957;47.222;18.670;2022-11-03T06:19:55;11.00;;;8.20;;
67051;SDS011;53957;47.222;18.670;2022-11-03T06:23:00;15.32;;;8.05;;
67051;SDS011;53957;47.222;18.670;2022-11-03T06:26:23;16.90;;;9.13;;
67051;SDS011;53957;47.222;18.670;2022-11-03T06:29:29;16.37;;;8.98;;
67051;SDS011;53957;47.222;18.670;2022-11-03T06:32:34;14.35;;;9.15;;
67051;SDS011;53957;47.222;18.670;2022-11-03T06:35:37;13.32;;;9.73;;
67051;SDS011;53957;47.222;18.670;2022-11-03T06:38:40;13.23;;;8.23;;
67051;SDS011;53957;47.222;18.670;2022-11-03T06:41:43;12.85;;;9.50;;
67051;SDS011;53957;47.222;18.670;2022-11-03T06:44:46;12.77;;;9.18;;
67051;SDS011;53957;47.222;18.670;2022-11-03T06:47:51;10.18;;;8.05;;
67051;SDS011;53957;47.222;18.670;2022-11-03T06:50:55;11.60;;;8.02;;
67051;SDS011;53957;47.222;18.670;2022-11-03T06:53:59;11.40;;;8.13;;
67051;SDS011;53957;47.222;18.670;2022-11-03T06:57:05;10.32;;;7.32;;
67051;SDS011;53957;47.222;18.670;2022-11-03T07:00:20;9.57;;;7.25;;
67051;SDS011;53957;47.222;18.670;2022-11-03T07:03:43;12.75;;;7.05;;
67051;SDS011;53957;47.222;18.670;2022-11-03T07:06:46;8.20;;;6.03;;
67051;SDS011;53957;47.222;18.670;2022-11-03T07:09:54;8.98;;;6.68;;
67051;SDS011;53957;47.222;18.670;2022-11-03T07:13:05;10.27;;;6.60;;
67051;SDS011;53957;47.222;18.670;2022-11-03T07:16:17;8.18;;;6.55;;
67051;SDS011;53957;47.222;18.670;2022-11-03T07:22:36;11.38;;;6.85;;
67051;SDS011;53957;47.222;18.670;2022-11-03T07:25:39;11.75;;;6.68;;
67051;SDS011;53957;47.222;18.670;2022-11-03T07:28:42;7.62;;;5.53;;
67051;SDS011;53957;47.222;18.670;2022-11-03T07:31:45;9.52;;;5.93;;
67051;SDS011;53957;47.222;18.670;2022-11-03T07:34:48;9.02;;;6.43;;
67051;SDS011;53957;47.222;18.670;2022-11-03T07:37:54;9.60;;;6.90;;
67051;SDS011;53957;47.222;18.670;2022-11-03T07:40:59;11.95;;;7.07;;
67051;SDS011;53957;47.222;18.670;2022-11-03T07:44:02;11.55;;;7.25;;
67051;SDS011;53957;47.222;18.670;2022-11-03T07:47:11;25.55;;;8.35;;
67051;SDS011;53957;47.222;18.670;2022-11-03T07:50:18;18.85;;;8.20;;
67051;SDS011;53957;47.222;18.670;2022-11-03T08:00:45;15.73;;;9.23;;
67051;SDS011;53957;47.222;18.670;2022-11-03T08:03:48;16.15;;;9.98;;
67051;SDS011;53957;47.222;18.670;2022-11-03T08:06:51;16.02;;;9.43;;
67051;SDS011;53957;47.222;18.670;2022-11-03T08:09:54;16.35;;;10.35;;
67051;SDS011;53957;47.222;18.670;2022-11-03T08:12:57;22.75;;;10.80;;
67051;SDS011;53957;47.222;18.670;2022-11-03T08:16:00;13.45;;;9.05;;
67051;SDS011;53957;47.222;18.670;2022-11-03T08:19:03;19.23;;;11.18;;
67051;SDS011;53957;47.222;18.670;2022-11-03T08:22:07;17.45;;;8.77;;
67051;SDS011;53957;47.222;18.670;2022-11-03T08:25:10;21.60;;;11.27;;
67051;SDS011;53957;47.222;18.670;2022-11-03T08:28:13;25.17;;;11.27;;
67051;SDS011;53957;47.222;18.670;2022-11-03T08:31:16;22.75;;;12.25;;
67051;SDS011;53957;47.222;18.670;2022-11-03T08:34:19;25.90;;;12.52;;
67051;SDS011;53957;47.222;18.670;2022-11-03T08:37:22;23.87;;;13.05;;
67051;SDS011;53957;47.222;18.670;2022-11-03T08:40:25;21.75;;;13.13;;
67051;SDS011;53957;47.222;18.670;2022-11-03T08:43:28;25.65;;;12.43;;
67051;SDS011;53957;47.222;18.670;2022-11-03T08:46:31;26.08;;;12.23;;
67051;SDS011;53957;47.222;18.670;2022-11-03T08:49:34;23.45;;;12.90;;
67051;SDS011;53957;47.222;18.670;2022-11-03T08:52:37;28.38;;;13.18;;
67051;SDS011;53957;47.222;18.670;2022-11-03T08:55:39;25.30;;;13.20;;
67051;SDS011;53957;47.222;18.670;2022-11-03T08:58:42;27.65;;;14.15;;
67051;SDS011;53957;47.222;18.670;2022-11-03T09:01:45;17.92;;;10.55;;
67051;SDS011;53957;47.222;18.670;2022-11-03T09:04:48;29.40;;;14.80;;
67051;SDS011;53957;47.222;18.670;2022-11-03T09:07:51;23.25;;;13.82;;
67051;SDS011;53957;47.222;18.670;2022-11-03T09:11:14;26.17;;;13.48;;
67051;SDS011;53957;47.222;18.670;2022-11-03T09:14:17;29.15;;;14.32;;
67051;SDS011;53957;47.222;18.670;2022-11-03T09:17:20;24.55;;;12.80;;
67051;SDS011;53957;47.222;18.670;2022-11-03T09:20:23;21.05;;;12.63;;
67051;SDS011;53957;47.222;18.670;2022-11-03T09:23:25;20.95;;;11.88;;
67051;SDS011;53957;47.222;18.670;2022-11-03T09:26:28;23.98;;;12.63;;
67051;SDS011;53957;47.222;18.670;2022-11-03T09:29:31;20.02;;;10.65;;
67051;SDS011;53957;47.222;18.670;2022-11-03T09:32:54;24.10;;;12.10;;
67051;SDS011;53957;47.222;18.670;2022-11-03T09:35:57;20.65;;;12.00;;
67051;SDS011;53957;47.222;18.670;2022-11-03T09:39:00;29.08;;;13.57;;
67051;SDS011;53957;47.222;18.670;2022-11-03T09:42:03;22.73;;;10.48;;
67051;SDS011;53957;47.222;18.670;2022-11-03T09:45:06;22.23;;;12.20;;
67051;SDS011;53957;47.222;18.670;2022-11-03T09:48:11;22.33;;;11.68;;
67051;SDS011;53957;47.222;18.670;2022-11-03T09:51:16;20.50;;;11.73;;
67051;SDS011;53957;47.222;18.670;2022-11-03T09:54:22;21.87;;;11.30;;
67051;SDS011;53957;47.222;18.670;2022-11-03T09:57:25;25.52;;;12.93;;
67051;SDS011;53957;47.222;18.670;2022-11-03T10:00:29;23.45;;;11.82;;
67051;SDS011;53957;47.222;18.670;2022-11-03T10:03:32;19.67;;;12.32;;
67051;SDS011;53957;47.222;18.670;2022-11-03T10:06:36;23.90;;;12.88;;
67051;SDS011;53957;47.222;18.670;2022-11-03T10:09:42;24.90;;;13.30;;
67051;SDS011;53957;47.222;18.670;2022-11-03T10:12:51;25.42;;;12.55;;
67051;SDS011;53957;47.222;18.670;2022-11-03T10:15:55;27.73;;;13.25;;
67051;SDS011;53957;47.222;18.670;2022-11-03T10:18:59;26.55;;;11.75;;
67051;SDS011;53957;47.222;18.670;2022-11-03T10:22:02;23.92;;;13.25;;
67051;SDS011;53957;47.222;18.670;2022-11-03T10:25:25;33.78;;;14.10;;
67051;SDS011;53957;47.222;18.670;2022-11-03T10:28:35;28.55;;;13.20;;
67051;SDS011;53957;47.222;18.670;2022-11-03T10:31:39;23.75;;;13.10;;
67051;SDS011;53957;47.222;18.670;2022-11-03T10:34:43;25.62;;;13.18;;
67051;SDS011;53957;47.222;18.670;2022-11-03T10:37:45;29.92;;;14.40;;
67051;SDS011;53957;47.222;18.670;2022-11-03T10:40:49;20.73;;;11.88;;
67051;SDS011;53957;47.222;18.670;2022-11-03T10:43:58;29.00;;;14.20;;
67051;SDS011;53957;47.222;18.670;2022-11-03T10:47:08;27.13;;;14.43;;
67051;SDS011;53957;47.222;18.670;2022-11-03T10:50:41;27.52;;;12.95;;
67051;SDS011;53957;47.222;18.670;2022-11-03T10:53:44;27.30;;;13.30;;
67051;SDS011;53957;47.222;18.670;2022-11-03T10:56:47;37.03;;;14.82;;
67051;SDS011;53957;47.222;18.670;2022-11-03T11:43:37;26.23;;;14.20;;
67051;SDS011;53957;47.222;18.670;2022-11-03T11:46:43;29.63;;;16.73;;
67051;SDS011;53957;47.222;18.670;2022-11-03T11:49:46;28.33;;;13.55;;
67051;SDS011;53957;47.222;18.670;2022-11-03T11:52:50;36.03;;;13.02;;
67051;SDS011;53957;47.222;18.670;2022-11-03T11:56:10;28.65;;;14.85;;
67051;SDS011;53957;47.222;18.670;2022-11-03T11:59:16;33.75;;;16.65;;
67051;SDS011;53957;47.222;18.670;2022-11-03T12:02:28;30.58;;;14.25;;
67051;SDS011;53957;47.222;18.670;2022-11-03T12:05:33;20.15;;;12.13;;
67051;SDS011;53957;47.222;18.670;2022-11-03T12:08:37;26.02;;;13.93;;
67051;SDS011;53957;47.222;18.670;2022-11-03T12:14:51;34.13;;;18.30;;
67051;SDS011;53957;47.222;18.670;2022-11-03T12:17:54;33.35;;;17.33;;
67051;SDS011;53957;47.222;18.670;2022-11-03T12:20:56;30.05;;;16.00;;
67051;SDS011;53957;47.222;18.670;2022-11-03T12:23:59;30.80;;;15.07;;
67051;SDS011;53957;47.222;18.670;2022-11-03T12:27:03;31.37;;;15.52;;
67051;SDS011;53957;47.222;18.670;2022-11-03T12:30:19;32.28;;;17.23;;
67051;SDS011;53957;47.222;18.670;2022-11-03T12:33:22;38.47;;;18.52;;
67051;SDS011;53957;47.222;18.670;2022-11-03T12:36:25;34.92;;;17.08;;
67051;SDS011;53957;47.222;18.670;2022-11-03T12:39:27;29.83;;;15.60;;
67051;SDS011;53957;47.222;18.670;2022-11-03T12:42:31;35.42;;;17.92;;
67051;SDS011;53957;47.222;18.670;2022-11-03T12:45:34;38.88;;;18.83;;
67051;SDS011;53957;47.222;18.670;2022-11-03T12:48:37;39.70;;;19.27;;
67051;SDS011;53957;47.222;18.670;2022-11-03T12:51:45;38.33;;;18.58;;
67051;SDS011;53957;47.222;18.670;2022-11-03T12:54:48;30.02;;;16.52;;
67051;SDS011;53957;47.222;18.670;2022-11-03T12:57:51;39.35;;;17.62;;
67051;SDS011;53957;47.222;18.670;2022-11-03T13:01:11;33.55;;;17.12;;
67051;SDS011;53957;47.222;18.670;2022-11-03T13:04:15;29.33;;;15.43;;
67051;SDS011;53957;47.222;18.670;2022-11-03T13:07:19;34.47;;;17.87;;
67051;SDS011;53957;47.222;18.670;2022-11-03T13:10:31;29.10;;;16.08;;
67051;SDS011;53957;47.222;18.670;2022-11-03T13:13:35;36.63;;;16.92;;
67051;SDS011;53957;47.222;18.670;2022-11-03T13:16:38;37.58;;;18.85;;
67051;SDS011;53957;47.222;18.670;2022-11-03T13:19:41;36.83;;;17.48;;
67051;SDS011;53957;47.222;18.670;2022-11-03T13:22:47;34.80;;;17.55;;
67051;SDS011;53957;47.222;18.670;2022-11-03T13:25:50;37.17;;;19.52;;
67051;SDS011;53957;47.222;18.670;2022-11-03T13:28:53;23.85;;;13.60;;
67051;SDS011;53957;47.222;18.670;2022-11-03T13:31:56;30.88;;;15.73;;
67051;SDS011;53957;47.222;18.670;2022-11-03T13:34:59;29.30;;;15.25;;
67051;SDS011;53957;47.222;18.670;2022-11-03T13:38:03;29.50;;;14.93;;
67051;SDS011;53957;47.222;18.670;2022-11-03T14:18:06;31.35;;;17.60;;
67051;SDS011;53957;47.222;18.670;2022-11-03T14:21:09;31.20;;;16.90;;
67051;SDS011;53957;47.222;18.670;2022-11-03T14:24:11;24.70;;;14.77;;
67051;SDS011;53957;47.222;18.670;2022-11-03T14:27:15;26.17;;;14.27;;
67051;SDS011;53957;47.222;18.670;2022-11-03T14:30:24;37.75;;;18.05;;
67051;SDS011;53957;47.222;18.670;2022-11-03T14:33:27;35.95;;;17.62;;
67051;SDS011;53957;47.222;18.670;2022-11-03T14:36:30;34.58;;;16.77;;
67051;SDS011;53957;47.222;18.670;2022-11-03T14:39:53;30.67;;;16.67;;
67051;SDS011;53957;47.222;18.670;2022-11-03T14:42:55;29.55;;;15.57;;
67051;SDS011;53957;47.222;18.670;2022-11-03T14:45:58;36.58;;;16.80;;
67051;SDS011;53957;47.222;18.670;2022-11-03T14:49:01;28.30;;;15.90;;
67051;SDS011;53957;47.222;18.670;2022-11-03T14:52:06;37.53;;;18.12;;
67051;SDS011;53957;47.222;18.670;2022-11-03T14:55:09;35.42;;;17.25;;
67051;SDS011;53957;47.222;18.670;2022-11-03T14:58:12;33.88;;;17.10;;
67051;SDS011;53957;47.222;18.670;2022-11-03T15:01:15;33.40;;;17.55;;
67051;SDS011;53957;47.222;18.670;2022-11-03T15:04:20;34.05;;;17.17;;
67051;SDS011;53957;47.222;18.670;2022-11-03T15:07:24;25.45;;;15.15;;
67051;SDS011;53957;47.222;18.670;2022-11-03T15:10:27;30.55;;;18.45;;
67051;SDS011;53957;47.222;18.670;2022-11-03T15:13:30;27.65;;;16.27;;
67051;SDS011;53957;47.222;18.670;2022-11-03T15:16:33;21.00;;;13.82;;
67051;SDS011;53957;47.222;18.670;2022-11-03T15:19:37;19.95;;;12.05;;
67051;SDS011;53957;47.222;18.670;2022-11-03T15:22:40;24.50;;;13.95;;
67051;SDS011;53957;47.222;18.670;2022-11-03T15:26:03;23.25;;;13.48;;
67051;SDS011;53957;47.222;18.670;2022-11-03T15:29:07;20.50;;;11.63;;
67051;SDS011;53957;47.222;18.670;2022-11-03T15:32:09;27.77;;;15.57;;
67051;SDS011;53957;47.222;18.670;2022-11-03T15:35:12;27.95;;;14.48;;
67051;SDS011;53957;47.222;18.670;2022-11-03T15:38:15;17.58;;;11.70;;
67051;SDS011;53957;47.222;18.670;2022-11-03T15:41:19;35.28;;;15.63;;
67051;SDS011;53957;47.222;18.670;2022-11-03T15:44:22;21.20;;;12.13;;
67051;SDS011;53957;47.222;18.670;2022-11-03T15:47:25;16.58;;;11.23;;
67051;SDS011;53957;47.222;18.670;2022-11-03T15:50:28;26.85;;;15.75;;
67051;SDS011;53957;47.222;18.670;2022-11-03T15:53:32;35.22;;;15.27;;
67051;SDS011;53957;47.222;18.670;2022-11-03T15:56:35;28.23;;;16.55;;
67051;SDS011;53957;47.222;18.670;2022-11-03T15:59:38;33.15;;;17.12;;
67051;SDS011;53957;47.222;18.670;2022-11-03T16:02:41;30.65;;;18.12;;
67051;SDS011;53957;47.222;18.670;2022-11-03T16:05:44;34.35;;;16.60;;
67051;SDS011;53957;47.222;18.670;2022-11-03T16:09:07;25.37;;;14.18;;
67051;SDS011;53957;47.222;18.670;2022-11-03T16:12:11;21.75;;;12.35;;
67051;SDS011;53957;47.222;18.670;2022-11-03T16:15:34;32.75;;;17.65;;
67051;SDS011;53957;47.222;18.670;2022-11-03T16:18:37;33.97;;;18.33;;
67051;SDS011;53957;47.222;18.670;2022-11-03T16:21:40;26.30;;;16.00;;
67051;SDS011;53957;47.222;18.670;2022-11-03T16:24:43;25.85;;;15.80;;
67051;SDS011;53957;47.222;18.670;2022-11-03T16:27:48;26.08;;;15.48;;
67051;SDS011;53957;47.222;18.670;2022-11-03T16:30:54;26.95;;;16.15;;
67051;SDS011;53957;47.222;18.670;2022-11-03T16:33:57;30.30;;;16.30;;
67051;SDS011;53957;47.222;18.670;2022-11-03T16:37:01;28.02;;;14.07;;
67051;SDS011;53957;47.222;18.670;2022-11-03T16:40:04;28.48;;;15.23;;
67051;SDS011;53957;47.222;18.670;2022-11-03T16:43:09;23.45;;;13.35;;
67051;SDS011;53957;47.222;18.670;2022-11-03T16:46:16;27.13;;;16.95;;
67051;SDS011;53957;47.222;18.670;2022-11-03T16:49:19;30.40;;;16.52;;
67051;SDS011;53957;47.222;18.670;2022-11-03T16:52:22;23.00;;;13.90;;
67051;SDS011;53957;47.222;18.670;2022-11-03T16:55:25;30.10;;;18.15;;
67051;SDS011;53957;47.222;18.670;2022-11-03T16:58:28;14.85;;;9.93;;
67051;SDS011;53957;47.222;18.670;2022-11-03T17:01:33;25.33;;;15.18;;
67051;SDS011;53957;47.222;18.670;2022-11-03T17:04:36;30.35;;;16.83;;
67051;SDS011;53957;47.222;18.670;2022-11-03T17:07:40;24.23;;;13.55;;
67051;SDS011;53957;47.222;18.670;2022-11-03T17:10:43;21.50;;;13.60;;
67051;SDS011;53957;47.222;18.670;2022-11-03T17:13:47;29.25;;;16.05;;
67051;SDS011;53957;47.222;18.670;2022-11-03T17:16:50;38.30;;;15.93;;
67051;SDS011;53957;47.222;18.670;2022-11-03T17:19:54;32.13;;;16.60;;
67051;SDS011;53957;47.222;18.670;2022-11-03T17:22:58;25.42;;;15.70;;
67051;SDS011;53957;47.222;18.670;2022-11-03T17:26:01;24.40;;;15.10;;
67051;SDS011;53957;47.222;18.670;2022-11-03T17:29:07;30.67;;;16.40;;
67051;SDS011;53957;47.222;18.670;2022-11-03T17:35:39;33.97;;;18.33;;
67051;SDS011;53957;47.222;18.670;2022-11-03T17:49:45;27.73;;;17.55;;
67051;SDS011;53957;47.222;18.670;2022-11-03T17:52:50;25.70;;;14.93;;
67051;SDS011;53957;47.222;18.670;2022-11-03T17:55:55;26.87;;;15.50;;
67051;SDS011;53957;47.222;18.670;2022-11-03T17:59:20;26.37;;;15.05;;
67051;SDS011;53957;47.222;18.670;2022-11-03T18:02:24;30.65;;;16.33;;
67051;SDS011;53957;47.222;18.670;2022-11-03T18:05:31;32.13;;;16.30;;
67051;SDS011;53957;47.222;18.670;2022-11-03T18:08:34;28.50;;;15.15;;
67051;SDS011;53957;47.222;18.670;2022-11-03T18:11:38;37.30;;;15.13;;
67051;SDS011;53957;47.222;18.670;2022-11-03T18:15:03;32.38;;;16.23;;
67051;SDS011;53957;47.222;18.670;2022-11-03T18:18:11;32.00;;;14.87;;
67051;SDS011;53957;47.222;18.670;2022-11-03T18:21:17;26.23;;;16.37;;
67051;SDS011;53957;47.222;18.670;2022-11-03T18:24:23;28.60;;;17.17;;
67051;SDS011;53957;47.222;18.670;2022-11-03T18:27:28;33.78;;;17.67;;
67051;SDS011;53957;47.222;18.670;2022-11-03T18:30:32;31.87;;;16.12;;
67051;SDS011;53957;47.222;18.670;2022-11-03T18:33:35;35.10;;;18.35;;
67051;SDS011;53957;47.222;18.670;2022-11-03T18:36:39;33.15;;;17.02;;
67051;SDS011;53957;47.222;18.670;2022-11-03T18:39:42;32.40;;;16.65;;
67051;SDS011;53957;47.222;18.670;2022-11-03T18:42:45;35.15;;;18.60;;
67051;SDS011;53957;47.222;18.670;2022-11-03T18:45:48;35.90;;;18.92;;
67051;SDS011;53957;47.222;18.670;2022-11-03T18:48:53;43.65;;;17.80;;
67051;SDS011;53957;47.222;18.670;2022-11-03T18:51:59;33.38;;;17.65;;
67051;SDS011;53957;47.222;18.670;2022-11-03T18:55:11;38.45;;;18.45;;
67051;SDS011;53957;47.222;18.670;2022-11-03T18:58:15;31.98;;;17.95;;
67051;SDS011;53957;47.222;18.670;2022-11-03T19:01:23;39.20;;;18.55;;
67051;SDS011;53957;47.222;18.670;2022-11-03T19:04:28;29.42;;;16.35;;
67051;SDS011;53957;47.222;18.670;2022-11-03T19:07:33;47.17;;;20.05;;
67051;SDS011;53957;47.222;18.670;2022-11-03T19:10:38;37.22;;;19.45;;
67051;SDS011;53957;47.222;18.670;2022-11-03T19:13:43;34.90;;;18.83;;
67051;SDS011;53957;47.222;18.670;2022-11-03T19:16:49;30.70;;;15.23;;
67051;SDS011;53957;47.222;18.670;2022-11-03T19:20:18;33.97;;;19.02;;
67051;SDS011;53957;47.222;18.670;2022-11-03T19:23:21;35.88;;;18.48;;
67051;SDS011;53957;47.222;18.670;2022-11-03T19:26:26;41.47;;;20.67;;
67051;SDS011;53957;47.222;18.670;2022-11-03T19:29:32;45.35;;;20.23;;
67051;SDS011;53957;47.222;18.670;2022-11-03T19:32:41;42.22;;;20.45;;
67051;SDS011;53957;47.222;18.670;2022-11-03T19:35:47;41.55;;;20.12;;
67051;SDS011;53957;47.222;18.670;2022-11-03T19:38:52;40.88;;;20.45;;
67051;SDS011;53957;47.222;18.670;2022-11-03T19:41:59;44.65;;;20.73;;
67051;SDS011;53957;47.222;18.670;2022-11-03T19:45:22;36.45;;;18.42;;
67051;SDS011;53957;47.222;18.670;2022-11-03T19:48:27;43.60;;;20.90;;
67051;SDS011;53957;47.222;18.670;2022-11-03T19:51:35;43.28;;;19.58;;
67051;SDS011;53957;47.222;18.670;2022-11-03T19:54:45;46.03;;;21.40;;
67051;SDS011;53957;47.222;18.670;2022-11-03T19:57:52;47.95;;;21.23;;
67051;SDS011;53957;47.222;18.670;2022-11-03T20:00:55;36.63;;;19.65;;
67051;SDS011;53957;47.222;18.670;2022-11-03T20:04:00;37.13;;;19.15;;
67051;SDS011;53957;47.222;18.670;2022-11-03T20:07:03;34.25;;;17.17;;
67051;SDS011;53957;47.222;18.670;2022-11-03T20:10:12;44.88;;;21.02;;
67051;SDS011;53957;47.222;18.670;2022-11-03T20:13:19;43.35;;;21.55;;